SWA3635 KMCI-KBNA
Flight info
| Callsign | SWA3635 |
|---|---|
| Flight time | 1h 9m |
| Altitude | 39000 |
| Route | LAKES5 COU NMANN RYYMN3 |
| Aircraft | B738/M-SADE2E3GIJ4RWZ/LB1D1 |
Departure
| Time | 2026-04-30 11:06 |
|---|---|
| Airport | Kansas City International Airport (KMCI) |
Arrival
| Time | 2026-04-30 12:15 |
|---|---|
| Airport | Nashville International Airport (KBNA) |
| Time | Latitude | Longitude | Altitude | Speed | Heading |
|---|---|---|---|---|---|
| 2026-04-30 10:43 | 39.29821 | -94.72349 | 998 ft | 0 kts | 103° |
| 2026-04-30 10:56 | 39.29822 | -94.72356 | 998 ft | 2 kts | 103° |
| 2026-04-30 10:57 | 39.29826 | -94.72375 | 998 ft | 2 kts | 103° |
| 2026-04-30 10:57 | 39.29829 | -94.72393 | 998 ft | 2 kts | 103° |
| 2026-04-30 10:57 | 39.29831 | -94.72407 | 999 ft | 1 kts | 118° |
| 2026-04-30 10:57 | 39.29837 | -94.72413 | 999 ft | 1 kts | 177° |
| 2026-04-30 10:58 | 39.29842 | -94.72412 | 999 ft | 0 kts | 196° |
| 2026-04-30 10:58 | 39.29845 | -94.72411 | 999 ft | 0 kts | 192° |
| 2026-04-30 11:00 | 39.29832 | -94.72414 | 999 ft | 4 kts | 192° |
| 2026-04-30 11:00 | 39.29777 | -94.72430 | 999 ft | 11 kts | 192° |
| 2026-04-30 11:00 | 39.29686 | -94.72459 | 1000 ft | 14 kts | 192° |
| 2026-04-30 11:01 | 39.29597 | -94.72484 | 1002 ft | 12 kts | 192° |
| 2026-04-30 11:01 | 39.29552 | -94.72559 | 1004 ft | 13 kts | 251° |
| 2026-04-30 11:01 | 39.29475 | -94.72616 | 1007 ft | 14 kts | 193° |
| 2026-04-30 11:01 | 39.29371 | -94.72647 | 1010 ft | 12 kts | 193° |
| 2026-04-30 11:02 | 39.29282 | -94.72675 | 1013 ft | 10 kts | 197° |
| 2026-04-30 11:02 | 39.29244 | -94.72743 | 1016 ft | 10 kts | 282° |
| 2026-04-30 11:02 | 39.29258 | -94.72781 | 1015 ft | 0 kts | 307° |
| 2026-04-30 11:02 | 39.29270 | -94.72800 | 1015 ft | 6 kts | 309° |
| 2026-04-30 11:03 | 39.29319 | -94.72860 | 1015 ft | 9 kts | 316° |
| 2026-04-30 11:03 | 39.29361 | -94.72913 | 1015 ft | 4 kts | 333° |
| 2026-04-30 11:03 | 39.29378 | -94.72917 | 1015 ft | 0 kts | 3° |
| 2026-04-30 11:05 | 39.29584 | -94.72861 | 1011 ft | 61 kts | 13° |
| 2026-04-30 11:05 | 39.30194 | -94.72682 | 1005 ft | 116 kts | 13° |
| 2026-04-30 11:05 | 39.31150 | -94.72398 | 995 ft | 164 kts | 12° |
| 2026-04-30 11:06 | 39.32314 | -94.72028 | 1450 ft | 177 kts | 14° |
| 2026-04-30 11:06 | 39.33572 | -94.71587 | 1957 ft | 194 kts | 14° |
| 2026-04-30 11:06 | 39.34799 | -94.71085 | 2829 ft | 179 kts | 20° |
| 2026-04-30 11:06 | 39.35888 | -94.70251 | 3287 ft | 189 kts | 37° |
| 2026-04-30 11:07 | 39.36896 | -94.69114 | 3710 ft | 200 kts | 41° |
| 2026-04-30 11:07 | 39.37929 | -94.67786 | 4040 ft | 218 kts | 45° |
| 2026-04-30 11:07 | 39.38929 | -94.66225 | 4470 ft | 233 kts | 55° |
| 2026-04-30 11:07 | 39.39427 | -94.64162 | 4860 ft | 252 kts | 90° |
| 2026-04-30 11:08 | 39.38912 | -94.61999 | 5384 ft | 263 kts | 120° |
| 2026-04-30 11:08 | 39.37774 | -94.60059 | 5816 ft | 279 kts | 130° |
| 2026-04-30 11:08 | 39.36485 | -94.58144 | 6438 ft | 286 kts | 129° |
| 2026-04-30 11:08 | 39.35203 | -94.56149 | 7116 ft | 291 kts | 128° |
| 2026-04-30 11:09 | 39.33950 | -94.54090 | 7849 ft | 295 kts | 127° |
| 2026-04-30 11:09 | 39.32702 | -94.51981 | 8519 ft | 300 kts | 126° |
| 2026-04-30 11:09 | 39.31436 | -94.49827 | 9242 ft | 305 kts | 127° |
| 2026-04-30 11:09 | 39.30146 | -94.47636 | 9992 ft | 309 kts | 127° |
| 2026-04-30 11:10 | 39.28825 | -94.45399 | 10514 ft | 322 kts | 127° |
| 2026-04-30 11:10 | 39.27415 | -94.43015 | 10979 ft | 337 kts | 127° |
| 2026-04-30 11:10 | 39.25964 | -94.40565 | 11400 ft | 353 kts | 127° |
| 2026-04-30 11:10 | 39.24433 | -94.37980 | 11841 ft | 369 kts | 127° |
| 2026-04-30 11:11 | 39.22837 | -94.35287 | 12238 ft | 385 kts | 128° |
| 2026-04-30 11:11 | 39.21190 | -94.32510 | 12765 ft | 396 kts | 128° |
| 2026-04-30 11:11 | 39.19500 | -94.29659 | 13456 ft | 403 kts | 128° |
| 2026-04-30 11:11 | 39.17804 | -94.26804 | 14178 ft | 408 kts | 129° |
| 2026-04-30 11:12 | 39.16063 | -94.23874 | 14878 ft | 414 kts | 129° |
| 2026-04-30 11:12 | 39.14308 | -94.20924 | 15522 ft | 421 kts | 129° |
| 2026-04-30 11:12 | 39.12511 | -94.17895 | 16177 ft | 428 kts | 128° |
| 2026-04-30 11:12 | 39.10868 | -94.14659 | 16825 ft | 435 kts | 119° |
| 2026-04-30 11:13 | 39.09678 | -94.11036 | 17442 ft | 442 kts | 105° |
| 2026-04-30 11:13 | 39.09067 | -94.07156 | 18043 ft | 446 kts | 96° |
| 2026-04-30 11:13 | 39.08716 | -94.03210 | 18625 ft | 452 kts | 92° |
| 2026-04-30 11:13 | 39.08465 | -93.99187 | 19354 ft | 454 kts | 91° |
| 2026-04-30 11:14 | 39.08249 | -93.95122 | 19939 ft | 460 kts | 91° |
| 2026-04-30 11:14 | 39.08031 | -93.90961 | 20523 ft | 466 kts | 91° |
| 2026-04-30 11:14 | 39.07802 | -93.86778 | 21111 ft | 471 kts | 92° |
| 2026-04-30 11:14 | 39.07561 | -93.82574 | 21623 ft | 478 kts | 92° |
| 2026-04-30 11:15 | 39.07304 | -93.78291 | 22187 ft | 482 kts | 92° |
| 2026-04-30 11:15 | 39.07036 | -93.74000 | 22743 ft | 487 kts | 93° |
| 2026-04-30 11:15 | 39.06754 | -93.69623 | 23283 ft | 492 kts | 93° |
| 2026-04-30 11:15 | 39.06463 | -93.65208 | 23790 ft | 497 kts | 93° |
| 2026-04-30 11:16 | 39.06168 | -93.60782 | 24284 ft | 502 kts | 93° |
| 2026-04-30 11:16 | 39.05867 | -93.56323 | 24811 ft | 506 kts | 93° |
| 2026-04-30 11:16 | 39.05557 | -93.51765 | 25354 ft | 510 kts | 93° |
| 2026-04-30 11:16 | 39.05246 | -93.47222 | 25893 ft | 514 kts | 93° |
| 2026-04-30 11:17 | 39.04931 | -93.42630 | 26404 ft | 518 kts | 93° |
| 2026-04-30 11:17 | 39.04614 | -93.38037 | 26837 ft | 523 kts | 94° |
| 2026-04-30 11:17 | 39.04289 | -93.33353 | 27397 ft | 525 kts | 94° |
| 2026-04-30 11:17 | 39.03960 | -93.28624 | 27783 ft | 530 kts | 95° |
| 2026-04-30 11:18 | 39.03630 | -93.23914 | 28485 ft | 528 kts | 94° |
| 2026-04-30 11:18 | 39.02963 | -93.14512 | 29792 ft | 524 kts | 94° |
| 2026-04-30 11:18 | 39.02630 | -93.09842 | 30350 ft | 524 kts | 94° |
| 2026-04-30 11:19 | 39.02294 | -93.05151 | 30811 ft | 524 kts | 95° |
| 2026-04-30 11:19 | 39.01960 | -93.00515 | 31097 ft | 527 kts | 94° |
| 2026-04-30 11:19 | 39.01616 | -92.95801 | 31393 ft | 531 kts | 94° |
| 2026-04-30 11:19 | 39.01196 | -92.91077 | 31738 ft | 533 kts | 97° |
| 2026-04-30 11:20 | 39.00577 | -92.86348 | 32077 ft | 535 kts | 102° |
| 2026-04-30 11:20 | 38.99674 | -92.81707 | 32355 ft | 537 kts | 107° |
| 2026-04-30 11:20 | 38.98538 | -92.77138 | 32629 ft | 539 kts | 111° |
| 2026-04-30 11:20 | 38.97233 | -92.72592 | 32915 ft | 541 kts | 113° |
| 2026-04-30 11:21 | 38.95843 | -92.68108 | 33207 ft | 543 kts | 115° |
| 2026-04-30 11:21 | 38.94409 | -92.63638 | 33492 ft | 545 kts | 115° |
| 2026-04-30 11:21 | 38.92935 | -92.59103 | 33772 ft | 548 kts | 115° |
| 2026-04-30 11:21 | 38.91460 | -92.54571 | 34073 ft | 550 kts | 115° |
| 2026-04-30 11:22 | 38.89998 | -92.50050 | 34405 ft | 551 kts | 115° |
| 2026-04-30 11:22 | 38.88537 | -92.45499 | 34806 ft | 550 kts | 115° |
| 2026-04-30 11:22 | 38.87104 | -92.41000 | 35217 ft | 548 kts | 115° |
| 2026-04-30 11:22 | 38.85669 | -92.36468 | 35561 ft | 548 kts | 115° |
| 2026-04-30 11:23 | 38.84238 | -92.31937 | 35819 ft | 548 kts | 115° |
| 2026-04-30 11:23 | 38.82808 | -92.27407 | 36064 ft | 550 kts | 116° |
| 2026-04-30 11:23 | 38.79699 | -92.18373 | 36540 ft | 551 kts | 121° |
| 2026-04-30 11:24 | 38.77930 | -92.14097 | 36797 ft | 550 kts | 124° |
| 2026-04-30 11:24 | 38.76026 | -92.09821 | 37045 ft | 549 kts | 126° |
| 2026-04-30 11:24 | 38.74097 | -92.05638 | 37375 ft | 548 kts | 126° |
| 2026-04-30 11:25 | 38.70190 | -91.97269 | 37926 ft | 548 kts | 126° |
| 2026-04-30 11:25 | 38.68222 | -91.93034 | 38183 ft | 549 kts | 126° |
| 2026-04-30 11:25 | 38.64325 | -91.84560 | 38553 ft | 553 kts | 125° |
| 2026-04-30 11:26 | 38.60463 | -91.76082 | 39031 ft | 553 kts | 124° |
| 2026-04-30 11:26 | 38.56599 | -91.67560 | 39130 ft | 552 kts | 124° |
| 2026-04-30 11:27 | 38.52769 | -91.59118 | 39132 ft | 549 kts | 124° |
| 2026-04-30 11:27 | 38.48915 | -91.50653 | 39124 ft | 552 kts | 124° |
| 2026-04-30 11:28 | 38.43110 | -91.37963 | 39137 ft | 551 kts | 124° |
| 2026-04-30 11:29 | 38.39237 | -91.29524 | 39141 ft | 551 kts | 126° |
| 2026-04-30 11:29 | 38.33427 | -91.16911 | 39145 ft | 553 kts | 125° |
| 2026-04-30 11:30 | 38.27557 | -91.04217 | 39130 ft | 552 kts | 125° |
| 2026-04-30 11:31 | 38.23666 | -90.95824 | 39128 ft | 552 kts | 125° |
| 2026-04-30 11:31 | 38.19746 | -90.87405 | 39149 ft | 554 kts | 124° |
| 2026-04-30 11:32 | 38.15825 | -90.78996 | 39140 ft | 554 kts | 125° |
| 2026-04-30 11:32 | 38.11906 | -90.70608 | 39134 ft | 553 kts | 125° |
| 2026-04-30 11:33 | 38.06017 | -90.58057 | 39121 ft | 554 kts | 126° |
| 2026-04-30 11:33 | 38.02070 | -90.49667 | 39117 ft | 552 kts | 125° |
| 2026-04-30 11:34 | 37.98138 | -90.41337 | 39139 ft | 554 kts | 125° |
| 2026-04-30 11:34 | 37.94172 | -90.32953 | 39135 ft | 553 kts | 126° |
| 2026-04-30 11:35 | 37.90237 | -90.24645 | 39143 ft | 551 kts | 125° |
| 2026-04-30 11:35 | 37.86288 | -90.16341 | 39143 ft | 553 kts | 126° |
| 2026-04-30 11:36 | 37.82296 | -90.07971 | 39112 ft | 554 kts | 126° |
| 2026-04-30 11:36 | 37.80323 | -90.03836 | 38863 ft | 549 kts | 125° |
| 2026-04-30 11:36 | 37.78359 | -89.99721 | 38256 ft | 548 kts | 125° |
| 2026-04-30 11:37 | 37.76394 | -89.95614 | 37587 ft | 549 kts | 126° |
| 2026-04-30 11:37 | 37.74415 | -89.91490 | 36935 ft | 550 kts | 125° |
| 2026-04-30 11:37 | 37.72410 | -89.87319 | 36326 ft | 548 kts | 126° |
| 2026-04-30 11:37 | 37.70456 | -89.83250 | 36131 ft | 541 kts | 125° |
| 2026-04-30 11:38 | 37.66512 | -89.75069 | 36133 ft | 550 kts | 125° |
| 2026-04-30 11:38 | 37.62509 | -89.66791 | 36133 ft | 554 kts | 125° |
| 2026-04-30 11:39 | 37.58509 | -89.58516 | 36136 ft | 553 kts | 126° |
| 2026-04-30 11:39 | 37.54476 | -89.50194 | 36232 ft | 552 kts | 126° |
| 2026-04-30 11:40 | 37.52503 | -89.46042 | 36052 ft | 553 kts | 122° |
| 2026-04-30 11:40 | 37.50708 | -89.41781 | 36136 ft | 558 kts | 117° |
| 2026-04-30 11:40 | 37.47984 | -89.32552 | 36130 ft | 562 kts | 106° |
| 2026-04-30 11:41 | 37.46151 | -89.23006 | 36135 ft | 561 kts | 100° |
| 2026-04-30 11:41 | 37.44667 | -89.13422 | 36129 ft | 560 kts | 99° |
| 2026-04-30 11:42 | 37.43214 | -89.03775 | 36135 ft | 560 kts | 99° |
| 2026-04-30 11:42 | 37.41704 | -88.94223 | 36134 ft | 559 kts | 100° |
| 2026-04-30 11:43 | 37.40127 | -88.84650 | 36125 ft | 558 kts | 101° |
| 2026-04-30 11:43 | 37.38525 | -88.75159 | 36120 ft | 558 kts | 100° |
| 2026-04-30 11:44 | 37.37710 | -88.70376 | 35921 ft | 552 kts | 100° |
| 2026-04-30 11:44 | 37.36915 | -88.65705 | 35358 ft | 551 kts | 100° |
| 2026-04-30 11:44 | 37.36107 | -88.60956 | 34714 ft | 554 kts | 101° |
| 2026-04-30 11:44 | 37.35307 | -88.56261 | 34085 ft | 555 kts | 101° |
| 2026-04-30 11:45 | 37.34500 | -88.51548 | 33454 ft | 557 kts | 101° |
| 2026-04-30 11:45 | 37.33686 | -88.46793 | 32938 ft | 554 kts | 101° |
| 2026-04-30 11:45 | 37.32827 | -88.42065 | 32514 ft | 549 kts | 103° |
| 2026-04-30 11:45 | 37.31844 | -88.37504 | 32119 ft | 544 kts | 107° |
| 2026-04-30 11:46 | 37.30608 | -88.33056 | 31635 ft | 539 kts | 112° |
| 2026-04-30 11:46 | 37.29159 | -88.28739 | 31057 ft | 537 kts | 117° |
| 2026-04-30 11:46 | 37.27569 | -88.24522 | 30516 ft | 533 kts | 118° |
| 2026-04-30 11:46 | 37.25924 | -88.20392 | 29933 ft | 530 kts | 120° |
| 2026-04-30 11:47 | 37.24245 | -88.16267 | 29219 ft | 529 kts | 120° |
| 2026-04-30 11:47 | 37.22555 | -88.12136 | 28430 ft | 529 kts | 120° |
| 2026-04-30 11:47 | 37.20896 | -88.08061 | 27649 ft | 529 kts | 120° |
| 2026-04-30 11:47 | 37.19244 | -88.03972 | 26879 ft | 529 kts | 119° |
| 2026-04-30 11:48 | 37.17581 | -87.99821 | 26088 ft | 527 kts | 118° |
| 2026-04-30 11:48 | 37.15949 | -87.95719 | 25324 ft | 526 kts | 119° |
| 2026-04-30 11:48 | 37.14330 | -87.91626 | 24695 ft | 521 kts | 118° |
| 2026-04-30 11:48 | 37.12738 | -87.87589 | 24240 ft | 512 kts | 118° |
| 2026-04-30 11:49 | 37.11189 | -87.83656 | 23664 ft | 507 kts | 118° |
| 2026-04-30 11:49 | 37.09633 | -87.79703 | 23062 ft | 502 kts | 118° |
| 2026-04-30 11:49 | 37.08085 | -87.75780 | 22455 ft | 498 kts | 118° |
| 2026-04-30 11:49 | 37.06567 | -87.71935 | 21863 ft | 493 kts | 118° |
| 2026-04-30 11:50 | 37.05054 | -87.68107 | 21382 ft | 486 kts | 118° |
| 2026-04-30 11:50 | 37.03576 | -87.64375 | 20796 ft | 481 kts | 118° |
| 2026-04-30 11:50 | 37.02092 | -87.60632 | 20293 ft | 475 kts | 118° |
| 2026-04-30 11:50 | 37.00635 | -87.56962 | 19708 ft | 470 kts | 118° |
| 2026-04-30 11:51 | 36.99184 | -87.53316 | 19229 ft | 463 kts | 117° |
| 2026-04-30 11:51 | 36.97758 | -87.49736 | 19091 ft | 460 kts | 118° |
| 2026-04-30 11:51 | 36.96326 | -87.46147 | 19057 ft | 458 kts | 118° |
| 2026-04-30 11:51 | 36.94923 | -87.42632 | 18912 ft | 444 kts | 117° |
| 2026-04-30 11:52 | 36.93568 | -87.39238 | 18745 ft | 430 kts | 117° |
| 2026-04-30 11:52 | 36.92265 | -87.35973 | 18557 ft | 418 kts | 117° |
| 2026-04-30 11:52 | 36.90967 | -87.32726 | 18145 ft | 413 kts | 118° |
| 2026-04-30 11:52 | 36.89684 | -87.29522 | 17641 ft | 410 kts | 118° |
| 2026-04-30 11:53 | 36.88419 | -87.26370 | 17129 ft | 407 kts | 118° |
| 2026-04-30 11:53 | 36.87159 | -87.23238 | 16666 ft | 403 kts | 117° |
| 2026-04-30 11:53 | 36.85906 | -87.20123 | 16176 ft | 400 kts | 117° |
| 2026-04-30 11:53 | 36.84659 | -87.17023 | 15696 ft | 396 kts | 117° |
| 2026-04-30 11:54 | 36.83420 | -87.13973 | 15179 ft | 394 kts | 119° |
| 2026-04-30 11:54 | 36.81983 | -87.11091 | 14994 ft | 386 kts | 129° |
| 2026-04-30 11:54 | 36.80116 | -87.08778 | 14856 ft | 379 kts | 148° |
| 2026-04-30 11:54 | 36.77879 | -87.07128 | 14415 ft | 371 kts | 158° |
| 2026-04-30 11:55 | 36.75542 | -87.05724 | 13804 ft | 372 kts | 160° |
| 2026-04-30 11:55 | 36.73194 | -87.04387 | 13252 ft | 371 kts | 160° |
| 2026-04-30 11:55 | 36.70840 | -87.03041 | 12742 ft | 369 kts | 159° |
| 2026-04-30 11:55 | 36.68518 | -87.01685 | 12328 ft | 365 kts | 159° |
| 2026-04-30 11:56 | 36.66254 | -87.00332 | 12020 ft | 357 kts | 159° |
| 2026-04-30 11:56 | 36.64065 | -86.99000 | 11994 ft | 340 kts | 158° |
| 2026-04-30 11:56 | 36.61982 | -86.97722 | 11998 ft | 324 kts | 158° |
| 2026-04-30 11:56 | 36.59971 | -86.96491 | 12000 ft | 320 kts | 159° |
| 2026-04-30 11:57 | 36.57980 | -86.95282 | 12001 ft | 320 kts | 159° |
| 2026-04-30 11:57 | 36.55968 | -86.94062 | 11985 ft | 320 kts | 159° |
| 2026-04-30 11:57 | 36.53987 | -86.92857 | 11774 ft | 314 kts | 159° |
| 2026-04-30 11:57 | 36.52008 | -86.91653 | 11320 ft | 316 kts | 159° |
| 2026-04-30 11:58 | 36.50039 | -86.90458 | 10926 ft | 315 kts | 158° |
| 2026-04-30 11:58 | 36.48077 | -86.89268 | 10524 ft | 314 kts | 159° |
| 2026-04-30 11:58 | 36.46094 | -86.88064 | 10172 ft | 311 kts | 159° |
| 2026-04-30 11:58 | 36.44161 | -86.86888 | 9983 ft | 303 kts | 158° |
| 2026-04-30 11:59 | 36.42314 | -86.85762 | 9989 ft | 292 kts | 159° |
| 2026-04-30 11:59 | 36.40522 | -86.84669 | 9926 ft | 280 kts | 159° |
| 2026-04-30 11:59 | 36.38796 | -86.83620 | 9807 ft | 270 kts | 159° |
| 2026-04-30 11:59 | 36.37123 | -86.82607 | 9641 ft | 263 kts | 159° |
| 2026-04-30 12:00 | 36.35493 | -86.81625 | 9351 ft | 262 kts | 159° |
| 2026-04-30 12:00 | 36.33841 | -86.80633 | 9038 ft | 262 kts | 158° |
| 2026-04-30 12:00 | 36.32236 | -86.79663 | 8996 ft | 255 kts | 158° |
| 2026-04-30 12:00 | 36.30611 | -86.78682 | 9002 ft | 261 kts | 158° |
| 2026-04-30 12:01 | 36.28964 | -86.77689 | 8999 ft | 259 kts | 158° |
| 2026-04-30 12:01 | 36.27348 | -86.76711 | 8839 ft | 256 kts | 158° |
| 2026-04-30 12:01 | 36.25745 | -86.75752 | 8630 ft | 250 kts | 160° |
| 2026-04-30 12:01 | 36.24142 | -86.75101 | 8484 ft | 235 kts | 179° |
| 2026-04-30 12:02 | 36.22582 | -86.75280 | 8276 ft | 218 kts | 204° |
| 2026-04-30 12:02 | 36.21168 | -86.75878 | 8045 ft | 215 kts | 205° |
| 2026-04-30 12:02 | 36.19741 | -86.76457 | 7997 ft | 213 kts | 205° |
| 2026-04-30 12:02 | 36.18302 | -86.77000 | 7998 ft | 218 kts | 203° |
| 2026-04-30 12:03 | 36.16851 | -86.77530 | 8001 ft | 218 kts | 203° |
| 2026-04-30 12:03 | 36.13943 | -86.78603 | 7999 ft | 217 kts | 203° |
| 2026-04-30 12:03 | 36.12482 | -86.79144 | 7995 ft | 217 kts | 203° |
| 2026-04-30 12:04 | 36.11040 | -86.79654 | 7881 ft | 212 kts | 202° |
| 2026-04-30 12:04 | 36.09630 | -86.80140 | 7551 ft | 215 kts | 202° |
| 2026-04-30 12:04 | 36.08169 | -86.80650 | 7218 ft | 218 kts | 201° |
| 2026-04-30 12:04 | 36.06694 | -86.81164 | 6941 ft | 218 kts | 201° |
| 2026-04-30 12:05 | 36.05247 | -86.81670 | 6646 ft | 219 kts | 200° |
| 2026-04-30 12:05 | 36.03776 | -86.82187 | 6373 ft | 219 kts | 200° |
| 2026-04-30 12:05 | 36.02310 | -86.82700 | 6130 ft | 217 kts | 200° |
| 2026-04-30 12:05 | 36.00843 | -86.83215 | 5847 ft | 218 kts | 199° |
| 2026-04-30 12:06 | 35.99373 | -86.83731 | 5575 ft | 218 kts | 199° |
| 2026-04-30 12:06 | 35.97900 | -86.84246 | 5300 ft | 219 kts | 198° |
| 2026-04-30 12:06 | 35.96443 | -86.84758 | 5036 ft | 219 kts | 198° |
| 2026-04-30 12:06 | 35.94972 | -86.85275 | 4819 ft | 216 kts | 197° |
| 2026-04-30 12:07 | 35.93539 | -86.85777 | 4656 ft | 210 kts | 197° |
| 2026-04-30 12:07 | 35.92122 | -86.86224 | 4428 ft | 209 kts | 185° |
| 2026-04-30 12:07 | 35.90737 | -86.85867 | 4137 ft | 203 kts | 140° |
| 2026-04-30 12:07 | 35.89867 | -86.84610 | 3947 ft | 187 kts | 108° |
| 2026-04-30 12:08 | 35.89519 | -86.83115 | 3962 ft | 177 kts | 91° |
| 2026-04-30 12:08 | 35.89575 | -86.81657 | 3948 ft | 163 kts | 64° |
| 2026-04-30 12:08 | 35.90158 | -86.80510 | 3961 ft | 157 kts | 44° |
| 2026-04-30 12:08 | 35.90889 | -86.79500 | 3960 ft | 157 kts | 45° |
| 2026-04-30 12:09 | 35.91592 | -86.78452 | 3963 ft | 159 kts | 46° |
| 2026-04-30 12:09 | 35.92287 | -86.77412 | 3960 ft | 157 kts | 45° |
| 2026-04-30 12:09 | 35.93058 | -86.76441 | 3962 ft | 157 kts | 36° |
| 2026-04-30 12:09 | 35.93984 | -86.75736 | 3964 ft | 154 kts | 23° |
| 2026-04-30 12:10 | 35.94991 | -86.75237 | 3971 ft | 156 kts | 20° |
| 2026-04-30 12:10 | 35.96012 | -86.74798 | 3925 ft | 156 kts | 18° |
| 2026-04-30 12:10 | 35.97047 | -86.74385 | 3724 ft | 157 kts | 17° |
| 2026-04-30 12:10 | 35.98104 | -86.73970 | 3476 ft | 154 kts | 17° |
| 2026-04-30 12:11 | 35.99116 | -86.73575 | 3261 ft | 151 kts | 18° |
| 2026-04-30 12:11 | 36.00102 | -86.73193 | 3046 ft | 146 kts | 18° |
| 2026-04-30 12:11 | 36.01047 | -86.72824 | 2925 ft | 138 kts | 18° |
| 2026-04-30 12:11 | 36.01939 | -86.72476 | 2639 ft | 130 kts | 18° |
| 2026-04-30 12:12 | 36.02777 | -86.72150 | 2477 ft | 123 kts | 18° |
| 2026-04-30 12:12 | 36.03610 | -86.71827 | 2353 ft | 127 kts | 18° |
| 2026-04-30 12:12 | 36.04454 | -86.71497 | 2145 ft | 128 kts | 19° |
| 2026-04-30 12:12 | 36.05310 | -86.71165 | 1967 ft | 126 kts | 18° |
| 2026-04-30 12:13 | 36.06136 | -86.70841 | 1805 ft | 124 kts | 19° |
| 2026-04-30 12:13 | 36.06973 | -86.70514 | 1631 ft | 124 kts | 19° |
| 2026-04-30 12:13 | 36.07801 | -86.70190 | 1459 ft | 124 kts | 18° |
| 2026-04-30 12:13 | 36.08626 | -86.69873 | 1291 ft | 125 kts | 19° |
| 2026-04-30 12:14 | 36.09469 | -86.69560 | 1111 ft | 125 kts | 17° |
| 2026-04-30 12:14 | 36.10305 | -86.69222 | 907 ft | 128 kts | 18° |
| 2026-04-30 12:14 | 36.11152 | -86.68893 | 770 ft | 127 kts | 17° |
| 2026-04-30 12:14 | 36.12006 | -86.68556 | 615 ft | 125 kts | 17° |
| 2026-04-30 12:15 | 36.12720 | -86.68277 | 606 ft | 83 kts | 17° |
| 2026-04-30 12:15 | 36.13026 | -86.68132 | 606 ft | 27 kts | 72° |
| 2026-04-30 12:15 | 36.12908 | -86.67936 | 606 ft | 35 kts | 134° |
| 2026-04-30 12:15 | 36.12741 | -86.67703 | 606 ft | 25 kts | 109° |
| 2026-04-30 12:16 | 36.12724 | -86.67486 | 606 ft | 25 kts | 97° |
| 2026-04-30 12:16 | 36.12624 | -86.67308 | 606 ft | 20 kts | 133° |
| 2026-04-30 12:16 | 36.12513 | -86.67165 | 606 ft | 21 kts | 133° |
| 2026-04-30 12:16 | 36.12426 | -86.67027 | 606 ft | 13 kts | 91° |
| 2026-04-30 12:17 | 36.12629 | -86.66839 | 606 ft | 24 kts | 39° |
| 2026-04-30 12:17 | 36.12750 | -86.66719 | 606 ft | 20 kts | 35° |
| 2026-04-30 12:17 | 36.12796 | -86.66702 | 606 ft | 6 kts | 353° |
| 2026-04-30 12:18 | 36.12840 | -86.66718 | 606 ft | 5 kts | 346° |
| 2026-04-30 12:18 | 36.12856 | -86.66711 | 606 ft | 4 kts | 39° |
| 2026-04-30 12:18 | 36.12872 | -86.66695 | 606 ft | 4 kts | 41° |
| 2026-04-30 12:18 | 36.12880 | -86.66686 | 606 ft | 0 kts | 41° |